sensor_id;sensor_type;location;lat;lon;timestamp;temperature;humidity
19906;DHT22;10115;50.906;4.438;2023-10-19T00:01:58;16.30;99.90
19906;DHT22;10115;50.906;4.438;2023-10-19T00:04:27;16.40;99.90
19906;DHT22;10115;50.906;4.438;2023-10-19T00:06:58;16.50;99.90
19906;DHT22;10115;50.906;4.438;2023-10-19T00:09:24;16.40;99.90
19906;DHT22;10115;50.906;4.438;2023-10-19T00:11:51;16.40;99.90
19906;DHT22;10115;50.906;4.438;2023-10-19T00:14:18;16.40;99.90
19906;DHT22;10115;50.906;4.438;2023-10-19T00:16:44;16.50;99.90
19906;DHT22;10115;50.906;4.438;2023-10-19T00:19:16;16.50;99.90
19906;DHT22;10115;50.906;4.438;2023-10-19T00:21:45;16.50;99.90
19906;DHT22;10115;50.906;4.438;2023-10-19T00:24:20;16.50;99.90
19906;DHT22;10115;50.906;4.438;2023-10-19T00:26:48;16.40;99.90
19906;DHT22;10115;50.906;4.438;2023-10-19T00:29:15;16.50;99.90
19906;DHT22;10115;50.906;4.438;2023-10-19T00:32:01;16.50;99.90
19906;DHT22;10115;50.906;4.438;2023-10-19T00:34:28;16.50;99.90
19906;DHT22;10115;50.906;4.438;2023-10-19T00:36:54;16.50;99.90
19906;DHT22;10115;50.906;4.438;2023-10-19T00:39:34;16.50;99.90
19906;DHT22;10115;50.906;4.438;2023-10-19T00:42:09;16.50;99.90
19906;DHT22;10115;50.906;4.438;2023-10-19T00:44:35;16.50;99.90
19906;DHT22;10115;50.906;4.438;2023-10-19T00:47:08;16.50;99.90
19906;DHT22;10115;50.906;4.438;2023-10-19T00:49:39;16.50;99.90
19906;DHT22;10115;50.906;4.438;2023-10-19T00:52:06;16.50;99.90
19906;DHT22;10115;50.906;4.438;2023-10-19T00:54:46;16.50;99.90
19906;DHT22;10115;50.906;4.438;2023-10-19T00:57:16;16.50;99.90
19906;DHT22;10115;50.906;4.438;2023-10-19T00:59:48;16.50;99.90
19906;DHT22;10115;50.906;4.438;2023-10-19T01:02:14;16.50;99.90
19906;DHT22;10115;50.906;4.438;2023-10-19T01:04:51;16.50;99.90
19906;DHT22;10115;50.906;4.438;2023-10-19T01:07:25;16.50;99.90
19906;DHT22;10115;50.906;4.438;2023-10-19T01:09:59;16.50;99.90
19906;DHT22;10115;50.906;4.438;2023-10-19T01:12:26;16.50;99.90
19906;DHT22;10115;50.906;4.438;2023-10-19T01:15:02;16.50;99.90
19906;DHT22;10115;50.906;4.438;2023-10-19T01:17:52;16.50;99.90
19906;DHT22;10115;50.906;4.438;2023-10-19T01:20:20;16.60;99.90
19906;DHT22;10115;50.906;4.438;2023-10-19T01:22:55;16.50;99.90
19906;DHT22;10115;50.906;4.438;2023-10-19T01:25:44;16.50;99.90
19906;DHT22;10115;50.906;4.438;2023-10-19T01:28:20;16.50;99.90
19906;DHT22;10115;50.906;4.438;2023-10-19T01:30:51;16.50;99.90
19906;DHT22;10115;50.906;4.438;2023-10-19T01:33:17;16.40;99.90
19906;DHT22;10115;50.906;4.438;2023-10-19T01:35:46;16.40;99.90
19906;DHT22;10115;50.906;4.438;2023-10-19T01:38:31;16.40;99.90
19906;DHT22;10115;50.906;4.438;2023-10-19T01:41:01;16.40;99.90
19906;DHT22;10115;50.906;4.438;2023-10-19T01:43:31;16.30;99.90
19906;DHT22;10115;50.906;4.438;2023-10-19T01:45:58;16.30;99.90
19906;DHT22;10115;50.906;4.438;2023-10-19T01:48:29;16.30;99.90
19906;DHT22;10115;50.906;4.438;2023-10-19T01:51:04;16.30;99.90
19906;DHT22;10115;50.906;4.438;2023-10-19T01:53:31;16.40;99.90
19906;DHT22;10115;50.906;4.438;2023-10-19T01:55:57;16.30;99.90
19906;DHT22;10115;50.906;4.438;2023-10-19T01:58:24;16.40;99.90
19906;DHT22;10115;50.906;4.438;2023-10-19T02:00:53;16.30;99.90
19906;DHT22;10115;50.906;4.438;2023-10-19T02:03:26;16.40;99.90
19906;DHT22;10115;50.906;4.438;2023-10-19T02:06:01;16.40;99.90
19906;DHT22;10115;50.906;4.438;2023-10-19T02:08:36;16.30;99.90
19906;DHT22;10115;50.906;4.438;2023-10-19T02:11:07;16.30;99.90
19906;DHT22;10115;50.906;4.438;2023-10-19T02:13:48;16.20;99.90
19906;DHT22;10115;50.906;4.438;2023-10-19T02:16:17;16.30;99.90
19906;DHT22;10115;50.906;4.438;2023-10-19T02:18:47;16.30;99.90
19906;DHT22;10115;50.906;4.438;2023-10-19T02:21:13;16.30;99.90
19906;DHT22;10115;50.906;4.438;2023-10-19T02:23:40;16.20;99.90
19906;DHT22;10115;50.906;4.438;2023-10-19T02:26:08;16.10;99.90
19906;DHT22;10115;50.906;4.438;2023-10-19T02:28:33;16.20;99.90
19906;DHT22;10115;50.906;4.438;2023-10-19T02:31:04;16.20;99.90
19906;DHT22;10115;50.906;4.438;2023-10-19T02:33:45;16.20;99.90
19906;DHT22;10115;50.906;4.438;2023-10-19T02:36:14;16.10;99.90
19906;DHT22;10115;50.906;4.438;2023-10-19T02:38:42;16.10;99.90
19906;DHT22;10115;50.906;4.438;2023-10-19T02:41:16;16.10;99.90
19906;DHT22;10115;50.906;4.438;2023-10-19T02:43:46;16.00;99.90
19906;DHT22;10115;50.906;4.438;2023-10-19T02:46:17;16.00;99.90
19906;DHT22;10115;50.906;4.438;2023-10-19T02:48:44;15.90;99.90
19906;DHT22;10115;50.906;4.438;2023-10-19T02:51:13;15.80;99.90
19906;DHT22;10115;50.906;4.438;2023-10-19T02:53:42;15.80;99.90
19906;DHT22;10115;50.906;4.438;2023-10-19T02:56:15;15.70;99.90
19906;DHT22;10115;50.906;4.438;2023-10-19T02:58:46;15.70;99.90
19906;DHT22;10115;50.906;4.438;2023-10-19T03:01:19;15.60;99.90
19906;DHT22;10115;50.906;4.438;2023-10-19T03:03:51;15.60;99.90
19906;DHT22;10115;50.906;4.438;2023-10-19T03:06:22;15.60;99.90
19906;DHT22;10115;50.906;4.438;2023-10-19T03:08:49;15.70;99.90
19906;DHT22;10115;50.906;4.438;2023-10-19T03:11:23;15.70;99.90
19906;DHT22;10115;50.906;4.438;2023-10-19T03:13:50;15.60;99.90
19906;DHT22;10115;50.906;4.438;2023-10-19T03:16:17;15.70;99.90
19906;DHT22;10115;50.906;4.438;2023-10-19T03:18:43;15.80;99.90
19906;DHT22;10115;50.906;4.438;2023-10-19T03:21:08;15.70;99.90
19906;DHT22;10115;50.906;4.438;2023-10-19T03:23:36;15.80;99.90
19906;DHT22;10115;50.906;4.438;2023-10-19T03:26:03;15.80;99.90
19906;DHT22;10115;50.906;4.438;2023-10-19T03:28:50;15.80;99.90
19906;DHT22;10115;50.906;4.438;2023-10-19T03:31:21;15.80;99.90
19906;DHT22;10115;50.906;4.438;2023-10-19T03:33:48;15.90;99.90
19906;DHT22;10115;50.906;4.438;2023-10-19T03:36:23;15.80;99.90
19906;DHT22;10115;50.906;4.438;2023-10-19T03:38:49;15.80;99.90
19906;DHT22;10115;50.906;4.438;2023-10-19T03:41:17;15.70;99.90
19906;DHT22;10115;50.906;4.438;2023-10-19T03:43:49;15.70;99.90
19906;DHT22;10115;50.906;4.438;2023-10-19T03:46:17;15.70;99.90
19906;DHT22;10115;50.906;4.438;2023-10-19T03:49:03;15.80;99.90
19906;DHT22;10115;50.906;4.438;2023-10-19T03:51:39;15.80;99.90
19906;DHT22;10115;50.906;4.438;2023-10-19T03:54:27;15.90;99.90
19906;DHT22;10115;50.906;4.438;2023-10-19T03:56:54;15.80;99.90
19906;DHT22;10115;50.906;4.438;2023-10-19T03:59:22;15.90;99.90
19906;DHT22;10115;50.906;4.438;2023-10-19T04:01:48;15.80;99.90
19906;DHT22;10115;50.906;4.438;2023-10-19T04:04:14;15.90;99.90
19906;DHT22;10115;50.906;4.438;2023-10-19T04:06:42;15.90;99.90
19906;DHT22;10115;50.906;4.438;2023-10-19T04:09:13;15.90;99.90
19906;DHT22;10115;50.906;4.438;2023-10-19T04:11:42;15.90;99.90
19906;DHT22;10115;50.906;4.438;2023-10-19T04:14:15;15.90;99.90
19906;DHT22;10115;50.906;4.438;2023-10-19T04:16:41;16.00;99.90
19906;DHT22;10115;50.906;4.438;2023-10-19T04:19:09;15.90;99.90
19906;DHT22;10115;50.906;4.438;2023-10-19T04:21:36;16.00;99.90
19906;DHT22;10115;50.906;4.438;2023-10-19T04:24:05;16.10;99.90
19906;DHT22;10115;50.906;4.438;2023-10-19T04:26:36;15.90;99.90
19906;DHT22;10115;50.906;4.438;2023-10-19T04:29:06;16.00;99.90
19906;DHT22;10115;50.906;4.438;2023-10-19T04:31:43;16.00;99.90
19906;DHT22;10115;50.906;4.438;2023-10-19T04:34:21;16.00;99.90
19906;DHT22;10115;50.906;4.438;2023-10-19T04:36:50;16.10;99.90
19906;DHT22;10115;50.906;4.438;2023-10-19T04:39:18;16.20;99.90
19906;DHT22;10115;50.906;4.438;2023-10-19T04:41:45;16.10;99.90
19906;DHT22;10115;50.906;4.438;2023-10-19T04:44:14;16.20;99.90
19906;DHT22;10115;50.906;4.438;2023-10-19T04:46:41;16.10;99.90
19906;DHT22;10115;50.906;4.438;2023-10-19T04:49:07;16.20;99.90
19906;DHT22;10115;50.906;4.438;2023-10-19T04:51:33;16.20;99.90
19906;DHT22;10115;50.906;4.438;2023-10-19T04:54:00;16.10;99.90
19906;DHT22;10115;50.906;4.438;2023-10-19T04:56:25;16.00;99.90
19906;DHT22;10115;50.906;4.438;2023-10-19T04:58:51;16.00;99.90
19906;DHT22;10115;50.906;4.438;2023-10-19T05:01:18;16.10;99.90
19906;DHT22;10115;50.906;4.438;2023-10-19T05:03:43;16.10;99.90
19906;DHT22;10115;50.906;4.438;2023-10-19T05:06:09;16.10;99.90
19906;DHT22;10115;50.906;4.438;2023-10-19T05:08:35;16.20;99.90
19906;DHT22;10115;50.906;4.438;2023-10-19T05:11:02;16.20;99.90
19906;DHT22;10115;50.906;4.438;2023-10-19T05:13:30;16.20;99.90
19906;DHT22;10115;50.906;4.438;2023-10-19T05:15:56;16.20;99.90
19906;DHT22;10115;50.906;4.438;2023-10-19T05:18:24;16.20;99.90
19906;DHT22;10115;50.906;4.438;2023-10-19T05:20:52;16.10;99.90
19906;DHT22;10115;50.906;4.438;2023-10-19T05:23:24;16.20;99.90
19906;DHT22;10115;50.906;4.438;2023-10-19T05:25:59;16.10;99.90
19906;DHT22;10115;50.906;4.438;2023-10-19T05:28:25;16.20;99.90
19906;DHT22;10115;50.906;4.438;2023-10-19T05:30:51;16.30;99.90
19906;DHT22;10115;50.906;4.438;2023-10-19T05:33:17;16.20;99.90
19906;DHT22;10115;50.906;4.438;2023-10-19T05:35:52;16.10;99.90
19906;DHT22;10115;50.906;4.438;2023-10-19T05:38:18;16.10;99.90
19906;DHT22;10115;50.906;4.438;2023-10-19T05:40:45;16.10;99.90
19906;DHT22;10115;50.906;4.438;2023-10-19T05:43:11;16.10;99.90
19906;DHT22;10115;50.906;4.438;2023-10-19T05:45:38;16.20;99.90
19906;DHT22;10115;50.906;4.438;2023-10-19T05:48:04;16.10;99.90
19906;DHT22;10115;50.906;4.438;2023-10-19T05:50:35;16.00;99.90
19906;DHT22;10115;50.906;4.438;2023-10-19T05:53:04;16.00;99.90
19906;DHT22;10115;50.906;4.438;2023-10-19T05:55:31;16.00;99.90
19906;DHT22;10115;50.906;4.438;2023-10-19T05:57:57;16.10;99.90
19906;DHT22;10115;50.906;4.438;2023-10-19T06:00:23;16.00;99.90
19906;DHT22;10115;50.906;4.438;2023-10-19T06:02:51;16.00;99.90
19906;DHT22;10115;50.906;4.438;2023-10-19T06:05:18;16.00;99.90
19906;DHT22;10115;50.906;4.438;2023-10-19T06:07:45;16.00;99.90
19906;DHT22;10115;50.906;4.438;2023-10-19T06:10:13;15.90;99.90
19906;DHT22;10115;50.906;4.438;2023-10-19T06:12:42;16.10;99.90
19906;DHT22;10115;50.906;4.438;2023-10-19T06:15:09;16.10;99.90
19906;DHT22;10115;50.906;4.438;2023-10-19T06:17:37;16.00;99.90
19906;DHT22;10115;50.906;4.438;2023-10-19T06:20:06;16.10;99.90
19906;DHT22;10115;50.906;4.438;2023-10-19T06:22:35;16.00;99.90
19906;DHT22;10115;50.906;4.438;2023-10-19T06:25:02;16.10;99.90
19906;DHT22;10115;50.906;4.438;2023-10-19T06:27:29;16.00;99.90
19906;DHT22;10115;50.906;4.438;2023-10-19T06:29:57;16.10;99.90
19906;DHT22;10115;50.906;4.438;2023-10-19T06:32:22;16.10;99.90
19906;DHT22;10115;50.906;4.438;2023-10-19T06:34:48;16.10;99.90
19906;DHT22;10115;50.906;4.438;2023-10-19T06:37:13;16.00;99.90
19906;DHT22;10115;50.906;4.438;2023-10-19T06:39:40;16.00;99.90
19906;DHT22;10115;50.906;4.438;2023-10-19T06:42:08;15.90;99.90
19906;DHT22;10115;50.906;4.438;2023-10-19T06:44:43;15.90;99.90
19906;DHT22;10115;50.906;4.438;2023-10-19T06:47:09;15.90;99.90
19906;DHT22;10115;50.906;4.438;2023-10-19T06:49:36;15.90;99.90
19906;DHT22;10115;50.906;4.438;2023-10-19T06:52:01;15.90;99.90
19906;DHT22;10115;50.906;4.438;2023-10-19T06:54:30;15.80;99.90
19906;DHT22;10115;50.906;4.438;2023-10-19T06:56:56;15.80;99.90
19906;DHT22;10115;50.906;4.438;2023-10-19T06:59:21;15.80;99.90
19906;DHT22;10115;50.906;4.438;2023-10-19T07:01:47;15.70;99.90
19906;DHT22;10115;50.906;4.438;2023-10-19T07:04:13;15.70;99.90
19906;DHT22;10115;50.906;4.438;2023-10-19T07:06:39;15.80;99.90
19906;DHT22;10115;50.906;4.438;2023-10-19T07:09:05;15.70;99.90
19906;DHT22;10115;50.906;4.438;2023-10-19T07:11:32;15.80;99.90
19906;DHT22;10115;50.906;4.438;2023-10-19T07:13:59;15.70;99.90
19906;DHT22;10115;50.906;4.438;2023-10-19T07:16:25;15.70;99.90
19906;DHT22;10115;50.906;4.438;2023-10-19T07:18:52;15.70;99.90
19906;DHT22;10115;50.906;4.438;2023-10-19T07:21:18;15.90;99.90
19906;DHT22;10115;50.906;4.438;2023-10-19T07:23:44;15.80;99.90
19906;DHT22;10115;50.906;4.438;2023-10-19T07:26:11;15.80;99.90
19906;DHT22;10115;50.906;4.438;2023-10-19T07:28:39;15.70;99.90
19906;DHT22;10115;50.906;4.438;2023-10-19T07:31:05;15.80;99.90
19906;DHT22;10115;50.906;4.438;2023-10-19T07:33:38;15.70;99.90
19906;DHT22;10115;50.906;4.438;2023-10-19T07:36:12;15.70;99.90
19906;DHT22;10115;50.906;4.438;2023-10-19T07:38:40;15.60;99.90
19906;DHT22;10115;50.906;4.438;2023-10-19T07:41:07;15.70;99.90
19906;DHT22;10115;50.906;4.438;2023-10-19T07:43:35;15.70;99.90
19906;DHT22;10115;50.906;4.438;2023-10-19T07:46:00;15.80;99.90
19906;DHT22;10115;50.906;4.438;2023-10-19T07:48:26;15.80;99.90
19906;DHT22;10115;50.906;4.438;2023-10-19T07:50:52;15.90;99.90
19906;DHT22;10115;50.906;4.438;2023-10-19T07:53:19;15.90;99.90
19906;DHT22;10115;50.906;4.438;2023-10-19T07:55:44;15.90;99.90
19906;DHT22;10115;50.906;4.438;2023-10-19T07:58:10;16.00;99.90
19906;DHT22;10115;50.906;4.438;2023-10-19T08:00:36;16.10;99.90
19906;DHT22;10115;50.906;4.438;2023-10-19T08:03:03;16.20;99.90
19906;DHT22;10115;50.906;4.438;2023-10-19T08:05:29;16.10;99.90
19906;DHT22;10115;50.906;4.438;2023-10-19T08:07:56;16.10;99.90
19906;DHT22;10115;50.906;4.438;2023-10-19T08:10:24;16.20;99.90
19906;DHT22;10115;50.906;4.438;2023-10-19T08:12:51;16.30;99.90
19906;DHT22;10115;50.906;4.438;2023-10-19T08:15:18;16.50;99.90
19906;DHT22;10115;50.906;4.438;2023-10-19T08:17:47;16.40;99.90
19906;DHT22;10115;50.906;4.438;2023-10-19T08:20:14;16.40;99.90
19906;DHT22;10115;50.906;4.438;2023-10-19T08:22:49;16.50;99.90
19906;DHT22;10115;50.906;4.438;2023-10-19T08:25:17;16.60;99.90
19906;DHT22;10115;50.906;4.438;2023-10-19T08:27:44;16.60;99.90
19906;DHT22;10115;50.906;4.438;2023-10-19T08:30:14;16.60;99.90
19906;DHT22;10115;50.906;4.438;2023-10-19T08:32:43;16.60;99.90
19906;DHT22;10115;50.906;4.438;2023-10-19T08:35:09;16.50;99.90
19906;DHT22;10115;50.906;4.438;2023-10-19T08:37:38;16.50;99.90
19906;DHT22;10115;50.906;4.438;2023-10-19T08:40:06;16.60;99.90
19906;DHT22;10115;50.906;4.438;2023-10-19T08:42:32;16.60;99.90
19906;DHT22;10115;50.906;4.438;2023-10-19T08:45:00;16.60;99.90
19906;DHT22;10115;50.906;4.438;2023-10-19T08:47:26;16.50;99.90
19906;DHT22;10115;50.906;4.438;2023-10-19T08:49:53;16.60;99.90
19906;DHT22;10115;50.906;4.438;2023-10-19T08:52:21;16.60;99.90
19906;DHT22;10115;50.906;4.438;2023-10-19T08:54:49;16.50;99.90
19906;DHT22;10115;50.906;4.438;2023-10-19T08:57:15;16.60;99.90
19906;DHT22;10115;50.906;4.438;2023-10-19T08:59:41;16.60;99.90
19906;DHT22;10115;50.906;4.438;2023-10-19T09:02:06;16.50;99.90
19906;DHT22;10115;50.906;4.438;2023-10-19T09:04:41;16.70;99.90
19906;DHT22;10115;50.906;4.438;2023-10-19T09:07:08;16.70;99.90
19906;DHT22;10115;50.906;4.438;2023-10-19T09:09:35;16.80;99.90
19906;DHT22;10115;50.906;4.438;2023-10-19T09:12:08;17.10;99.90
19906;DHT22;10115;50.906;4.438;2023-10-19T09:14:35;17.10;99.90
19906;DHT22;10115;50.906;4.438;2023-10-19T09:17:02;17.20;99.90
19906;DHT22;10115;50.906;4.438;2023-10-19T09:19:41;17.20;99.90
19906;DHT22;10115;50.906;4.438;2023-10-19T09:22:08;17.40;99.90
19906;DHT22;10115;50.906;4.438;2023-10-19T09:24:42;17.40;99.90
19906;DHT22;10115;50.906;4.438;2023-10-19T09:27:08;17.60;99.90
19906;DHT22;10115;50.906;4.438;2023-10-19T09:29:33;17.70;99.90
19906;DHT22;10115;50.906;4.438;2023-10-19T09:32:00;17.50;99.90
19906;DHT22;10115;50.906;4.438;2023-10-19T09:34:30;17.40;99.90
19906;DHT22;10115;50.906;4.438;2023-10-19T09:36:59;17.40;99.90
19906;DHT22;10115;50.906;4.438;2023-10-19T09:39:29;17.40;99.90
19906;DHT22;10115;50.906;4.438;2023-10-19T09:42:06;17.60;99.90
19906;DHT22;10115;50.906;4.438;2023-10-19T09:44:55;17.60;99.90
19906;DHT22;10115;50.906;4.438;2023-10-19T09:47:30;17.50;99.90
19906;DHT22;10115;50.906;4.438;2023-10-19T09:50:01;17.40;99.90
19906;DHT22;10115;50.906;4.438;2023-10-19T09:52:27;17.40;99.90
19906;DHT22;10115;50.906;4.438;2023-10-19T09:55:14;17.40;99.90
19906;DHT22;10115;50.906;4.438;2023-10-19T09:57:58;17.40;99.90
19906;DHT22;10115;50.906;4.438;2023-10-19T10:00:25;17.50;99.90
19906;DHT22;10115;50.906;4.438;2023-10-19T10:02:51;17.60;99.90
19906;DHT22;10115;50.906;4.438;2023-10-19T10:10:50;17.50;99.90
19906;DHT22;10115;50.906;4.438;2023-10-19T10:15:58;18.10;99.90
19906;DHT22;10115;50.906;4.438;2023-10-19T10:18:28;18.20;99.90
19906;DHT22;10115;50.906;4.438;2023-10-19T10:21:07;18.20;99.90
19906;DHT22;10115;50.906;4.438;2023-10-19T10:23:56;18.30;99.90
19906;DHT22;10115;50.906;4.438;2023-10-19T10:26:24;18.20;99.90
19906;DHT22;10115;50.906;4.438;2023-10-19T10:31:46;18.50;99.90
19906;DHT22;10115;50.906;4.438;2023-10-19T10:37:11;18.30;99.90
19906;DHT22;10115;50.906;4.438;2023-10-19T10:39:39;18.40;99.90
19906;DHT22;10115;50.906;4.438;2023-10-19T10:42:08;18.50;99.90
19906;DHT22;10115;50.906;4.438;2023-10-19T10:44:41;18.20;99.90
19906;DHT22;10115;50.906;4.438;2023-10-19T10:47:09;18.20;99.90
19906;DHT22;10115;50.906;4.438;2023-10-19T10:49:51;18.30;99.90
19906;DHT22;10115;50.906;4.438;2023-10-19T10:52:31;18.30;99.90
19906;DHT22;10115;50.906;4.438;2023-10-19T10:55:13;18.40;99.90
19906;DHT22;10115;50.906;4.438;2023-10-19T10:57:41;18.20;99.90
19906;DHT22;10115;50.906;4.438;2023-10-19T11:00:09;18.40;99.90
19906;DHT22;10115;50.906;4.438;2023-10-19T11:02:40;18.20;99.90
19906;DHT22;10115;50.906;4.438;2023-10-19T11:05:12;18.10;99.90
19906;DHT22;10115;50.906;4.438;2023-10-19T11:08:03;18.00;99.90
19906;DHT22;10115;50.906;4.438;2023-10-19T11:10:29;18.10;99.90
19906;DHT22;10115;50.906;4.438;2023-10-19T11:13:09;18.30;99.90
19906;DHT22;10115;50.906;4.438;2023-10-19T11:15:35;18.40;99.90
19906;DHT22;10115;50.906;4.438;2023-10-19T11:18:02;18.60;99.90
19906;DHT22;10115;50.906;4.438;2023-10-19T11:20:29;18.60;99.90
19906;DHT22;10115;50.906;4.438;2023-10-19T11:22:56;18.50;99.90
19906;DHT22;10115;50.906;4.438;2023-10-19T11:25:26;18.50;99.90
19906;DHT22;10115;50.906;4.438;2023-10-19T11:27:59;18.40;99.90
19906;DHT22;10115;50.906;4.438;2023-10-19T11:30:27;18.40;99.90
19906;DHT22;10115;50.906;4.438;2023-10-19T11:32:55;18.50;99.90
19906;DHT22;10115;50.906;4.438;2023-10-19T11:35:30;18.50;99.90
19906;DHT22;10115;50.906;4.438;2023-10-19T11:37:58;18.50;99.90
19906;DHT22;10115;50.906;4.438;2023-10-19T11:40:28;18.70;99.90
19906;DHT22;10115;50.906;4.438;2023-10-19T11:42:55;18.90;99.90
19906;DHT22;10115;50.906;4.438;2023-10-19T11:45:25;18.90;99.90
19906;DHT22;10115;50.906;4.438;2023-10-19T11:47:52;18.90;99.90
19906;DHT22;10115;50.906;4.438;2023-10-19T11:50:18;18.60;99.90
19906;DHT22;10115;50.906;4.438;2023-10-19T11:52:45;18.70;99.90
19906;DHT22;10115;50.906;4.438;2023-10-19T11:55:12;18.70;99.90
19906;DHT22;10115;50.906;4.438;2023-10-19T11:57:39;18.90;99.90
19906;DHT22;10115;50.906;4.438;2023-10-19T12:00:06;19.00;99.90
19906;DHT22;10115;50.906;4.438;2023-10-19T12:02:36;19.10;99.90
19906;DHT22;10115;50.906;4.438;2023-10-19T12:05:05;19.20;99.90
19906;DHT22;10115;50.906;4.438;2023-10-19T12:07:36;18.80;99.90
19906;DHT22;10115;50.906;4.438;2023-10-19T12:10:02;18.80;99.90
19906;DHT22;10115;50.906;4.438;2023-10-19T12:12:28;18.50;99.90
19906;DHT22;10115;50.906;4.438;2023-10-19T12:14:54;18.30;99.90
19906;DHT22;10115;50.906;4.438;2023-10-19T12:17:20;18.30;99.90
19906;DHT22;10115;50.906;4.438;2023-10-19T12:19:47;18.10;99.90
19906;DHT22;10115;50.906;4.438;2023-10-19T12:22:13;18.10;99.90
19906;DHT22;10115;50.906;4.438;2023-10-19T12:24:39;18.00;99.90
19906;DHT22;10115;50.906;4.438;2023-10-19T12:27:04;17.90;99.90
19906;DHT22;10115;50.906;4.438;2023-10-19T12:29:30;18.00;99.90
19906;DHT22;10115;50.906;4.438;2023-10-19T12:31:57;18.10;99.90
19906;DHT22;10115;50.906;4.438;2023-10-19T12:34:23;18.10;99.90
19906;DHT22;10115;50.906;4.438;2023-10-19T12:36:48;18.10;99.90
19906;DHT22;10115;50.906;4.438;2023-10-19T12:39:17;18.00;99.90
19906;DHT22;10115;50.906;4.438;2023-10-19T12:42:01;18.00;99.90
19906;DHT22;10115;50.906;4.438;2023-10-19T12:44:27;18.00;99.90
19906;DHT22;10115;50.906;4.438;2023-10-19T12:46:55;18.20;99.90
19906;DHT22;10115;50.906;4.438;2023-10-19T12:49:22;18.50;99.90
19906;DHT22;10115;50.906;4.438;2023-10-19T12:51:51;18.70;99.90
19906;DHT22;10115;50.906;4.438;2023-10-19T12:54:18;18.90;99.90
19906;DHT22;10115;50.906;4.438;2023-10-19T12:56:44;19.30;99.90
19906;DHT22;10115;50.906;4.438;2023-10-19T12:59:09;19.30;99.90
19906;DHT22;10115;50.906;4.438;2023-10-19T13:01:35;19.60;99.90
19906;DHT22;10115;50.906;4.438;2023-10-19T13:04:01;19.90;99.90
19906;DHT22;10115;50.906;4.438;2023-10-19T13:06:39;20.00;99.90
19906;DHT22;10115;50.906;4.438;2023-10-19T13:09:05;19.90;99.90
19906;DHT22;10115;50.906;4.438;2023-10-19T13:11:34;19.80;99.90
19906;DHT22;10115;50.906;4.438;2023-10-19T13:14:00;19.60;99.90
19906;DHT22;10115;50.906;4.438;2023-10-19T13:16:26;19.50;99.90
19906;DHT22;10115;50.906;4.438;2023-10-19T13:18:53;19.50;99.90
19906;DHT22;10115;50.906;4.438;2023-10-19T13:21:19;19.70;99.90
19906;DHT22;10115;50.906;4.438;2023-10-19T13:23:51;19.80;99.90
19906;DHT22;10115;50.906;4.438;2023-10-19T13:26:17;19.80;99.90
19906;DHT22;10115;50.906;4.438;2023-10-19T13:28:46;19.80;99.90
19906;DHT22;10115;50.906;4.438;2023-10-19T13:31:13;20.20;99.90
19906;DHT22;10115;50.906;4.438;2023-10-19T13:33:41;20.40;99.90
19906;DHT22;10115;50.906;4.438;2023-10-19T13:36:09;20.90;99.90
19906;DHT22;10115;50.906;4.438;2023-10-19T13:38:35;21.60;99.90
19906;DHT22;10115;50.906;4.438;2023-10-19T13:41:04;21.00;99.90
19906;DHT22;10115;50.906;4.438;2023-10-19T13:43:32;20.60;99.90
19906;DHT22;10115;50.906;4.438;2023-10-19T13:45:58;20.10;99.90
19906;DHT22;10115;50.906;4.438;2023-10-19T13:48:25;19.80;99.90
19906;DHT22;10115;50.906;4.438;2023-10-19T13:50:50;20.00;99.90
19906;DHT22;10115;50.906;4.438;2023-10-19T13:53:18;20.50;99.90
19906;DHT22;10115;50.906;4.438;2023-10-19T13:55:44;20.60;99.90
19906;DHT22;10115;50.906;4.438;2023-10-19T13:58:10;21.10;99.90
19906;DHT22;10115;50.906;4.438;2023-10-19T14:00:36;21.70;99.90
19906;DHT22;10115;50.906;4.438;2023-10-19T14:03:05;21.80;99.90
19906;DHT22;10115;50.906;4.438;2023-10-19T14:05:42;22.40;99.90
19906;DHT22;10115;50.906;4.438;2023-10-19T14:08:09;22.30;99.90
19906;DHT22;10115;50.906;4.438;2023-10-19T14:10:35;22.30;99.90
19906;DHT22;10115;50.906;4.438;2023-10-19T14:13:02;22.40;99.90
19906;DHT22;10115;50.906;4.438;2023-10-19T14:15:28;23.60;99.90
19906;DHT22;10115;50.906;4.438;2023-10-19T14:17:56;24.00;99.90
19906;DHT22;10115;50.906;4.438;2023-10-19T14:20:24;24.20;99.90
19906;DHT22;10115;50.906;4.438;2023-10-19T14:22:50;24.60;99.90
19906;DHT22;10115;50.906;4.438;2023-10-19T14:25:19;24.60;99.90
19906;DHT22;10115;50.906;4.438;2023-10-19T14:27:47;23.90;99.90
19906;DHT22;10115;50.906;4.438;2023-10-19T14:30:22;24.10;99.90
19906;DHT22;10115;50.906;4.438;2023-10-19T14:32:49;23.60;99.90
19906;DHT22;10115;50.906;4.438;2023-10-19T14:35:16;24.00;99.90
19906;DHT22;10115;50.906;4.438;2023-10-19T14:37:47;24.80;99.90
19906;DHT22;10115;50.906;4.438;2023-10-19T14:40:18;24.20;99.90
19906;DHT22;10115;50.906;4.438;2023-10-19T14:42:46;24.60;99.90
19906;DHT22;10115;50.906;4.438;2023-10-19T14:45:13;24.50;99.90
19906;DHT22;10115;50.906;4.438;2023-10-19T14:47:49;24.50;99.90
19906;DHT22;10115;50.906;4.438;2023-10-19T14:50:17;24.10;99.90
19906;DHT22;10115;50.906;4.438;2023-10-19T14:52:47;24.10;99.90
19906;DHT22;10115;50.906;4.438;2023-10-19T14:55:14;24.60;99.90
19906;DHT22;10115;50.906;4.438;2023-10-19T14:57:44;23.80;99.90
19906;DHT22;10115;50.906;4.438;2023-10-19T15:00:12;23.90;99.90
19906;DHT22;10115;50.906;4.438;2023-10-19T15:02:51;24.30;99.90
19906;DHT22;10115;50.906;4.438;2023-10-19T15:05:20;24.80;99.90
19906;DHT22;10115;50.906;4.438;2023-10-19T15:07:47;24.50;99.90
19906;DHT22;10115;50.906;4.438;2023-10-19T15:10:17;24.40;99.90
19906;DHT22;10115;50.906;4.438;2023-10-19T15:12:43;24.50;99.90
19906;DHT22;10115;50.906;4.438;2023-10-19T15:15:09;23.40;99.90
19906;DHT22;10115;50.906;4.438;2023-10-19T15:17:39;22.00;99.90
19906;DHT22;10115;50.906;4.438;2023-10-19T15:20:06;21.20;99.90
19906;DHT22;10115;50.906;4.438;2023-10-19T15:22:32;20.40;99.90
19906;DHT22;10115;50.906;4.438;2023-10-19T15:24:59;19.70;99.90
19906;DHT22;10115;50.906;4.438;2023-10-19T15:27:25;19.60;99.90
19906;DHT22;10115;50.906;4.438;2023-10-19T15:29:50;19.40;99.90
19906;DHT22;10115;50.906;4.438;2023-10-19T15:32:16;19.30;99.90
19906;DHT22;10115;50.906;4.438;2023-10-19T15:34:42;19.30;99.90
19906;DHT22;10115;50.906;4.438;2023-10-19T15:37:08;19.30;99.90
19906;DHT22;10115;50.906;4.438;2023-10-19T15:39:34;19.20;99.90
19906;DHT22;10115;50.906;4.438;2023-10-19T15:42:00;19.20;99.90
19906;DHT22;10115;50.906;4.438;2023-10-19T15:44:26;19.10;99.90
19906;DHT22;10115;50.906;4.438;2023-10-19T15:46:52;19.30;99.90
19906;DHT22;10115;50.906;4.438;2023-10-19T15:49:18;19.20;99.90
19906;DHT22;10115;50.906;4.438;2023-10-19T15:51:45;19.10;99.90
19906;DHT22;10115;50.906;4.438;2023-10-19T15:54:11;19.00;99.90
19906;DHT22;10115;50.906;4.438;2023-10-19T15:56:36;19.10;99.90